INFORMAÇÕES METEOROLÓGICAS
METAR FOR LIRN
ADDS - METARS form results

(1104 UTC 28 March 2020)
Data provider http://aviationweather.gov/metar/data/
 
METAR text: LIRN 281050Z 23005KT 200V260 9999 BKN050 13/05 Q1013 NOSIG
Conditions at: LIRN (NAPLES/CAPODICHI, IT) observed 1050 UTC 28 March 2020
Temperature: 13.0°C (55°F)
Dewpoint: 5.0°C (41°F) [RH = 58%]
Pressure (altimeter): 29.91 inches Hg (1013.0 mb)
Winds: from the SW (230 degrees) at 6 MPH (5 knots; 2.6 m/s)
Visibility: 6 or more miles (10+ km)
Ceiling: 5000 feet AGL
Clouds: broken clouds at 5000 feet AGL
Weather: no significant weather observed at this time

METAR text: LIRN 281020Z 22004KT 170V260 9999 R06/1300U R24/P1500N BKN050 14/05 Q1013 NOSIG
Conditions at: LIRN (NAPLES/CAPODICHI, IT) observed 1020 UTC 28 March 2020
Temperature: 14.0°C (57°F)
Dewpoint: 5.0°C (41°F) [RH = 55%]
Pressure (altimeter): 29.91 inches Hg (1013.0 mb)
Winds: from the SW (220 degrees) at 5 MPH (4 knots; 2.1 m/s)
Visibility: 6 or more miles (10+ km)
Ceiling: 5000 feet AGL
Clouds: broken clouds at 5000 feet AGL
Weather: no significant weather observed at this time

Forecast for: LIRN (NAPLES/CAPODICHI, IT)
Text: TAF LIRN 280500Z 2806/2906 VRB05KT 9999 SCT030
Forecast period: 0600 UTC 28 March 2020 to 0600 UTC 29 March 2020
Forecast type: FROM: standard forecast or significant change
Winds: variable direction winds at 6 MPH (5 knots; 2.6 m/s)
Visibility: 6 or more miles 10+ km)
Ceiling: at least 12,000 feet AGL
Clouds: scattered clouds at 3000 feet AGL
Weather: no significant weather forecast for this period
Text: TEMPO 2812/2816 RA
Forecast period: 1200 to 1600 UTC 28 March 2020
Forecast type: TEMPORARY: The following changes expected for less than half the time period
Visibility: missing
Ceiling: unknown
Clouds: missing
Weather: RA  (moderate rain)

 MAPA DO AEROPORTO

 INFORMAÇÕES DA PISTA
Pista 06 Tamanho da pista 8622 ft Largura da pista 148 ft
Elevação da pista 284 ft Ranhura da pista 1309 ft Proa da pista 58
Pista 24 Tamanho da pista 8622 ft Largura da pista 148 ft
Elevação da pista 223 ft Ranhura da pista 624 ft Proa da pista 238

 FREQUÊNCIAS DO AEROPORTO
Tipo APP Nome NAPOLI RAD Frequência 124.35 MHZ
Tipo ATIS Nome ATIS Frequência 135.975 MHZ
Tipo DIR Nome NAPOLI DIR Frequência 120.95 MHZ
Tipo GCCD Nome NAPOLI GND Frequência 121.9 MHZ
Tipo OPS Nome USN BASE O Frequência 118.275 MHZ
Tipo PMSV Nome PMSV METRO Frequência 34.1 MHZ
Tipo POST Nome ATOC Frequência 118.275 MHZ
Tipo TWR Nome NAPOLI TWR Frequência 118.5 MHZ

 AUXÍLIOS DE NAVEGAÇÃO PRÓXIMOS AO AEROPORTO
Tipo VOR-DME Nome Pomigliano Frequência 117850 KHZ
Tipo NDB Nome Pomigliano Frequência 351 KHZ





Powered by Virtual Airlines Manager [v2.6.2]